createdAt,value
2018-06-14T00:08:11.173Z,16.80
2018-06-14T00:13:08.592Z,16.70
2018-06-14T00:15:37.513Z,16.60
2018-06-14T00:18:06.487Z,16.60
2018-06-14T00:20:35.406Z,16.70
2018-06-14T00:25:32.991Z,16.70
2018-06-14T00:28:01.951Z,16.70
2018-06-14T00:30:30.919Z,16.60
2018-06-14T00:32:59.814Z,16.70
2018-06-14T00:35:28.833Z,16.60
2018-06-14T00:37:57.768Z,16.60
2018-06-14T00:40:26.795Z,16.40
2018-06-14T00:42:55.738Z,16.40
2018-06-14T00:45:24.716Z,16.40
2018-06-14T00:50:22.163Z,16.50
2018-06-14T00:52:51.078Z,16.50
2018-06-14T00:57:48.844Z,16.50
2018-06-14T01:00:17.789Z,16.40
2018-06-14T01:02:46.668Z,16.50
2018-06-14T01:05:15.612Z,16.40
2018-06-14T01:07:44.654Z,16.40
2018-06-14T01:10:13.690Z,16.40
2018-06-14T01:12:42.589Z,16.40
2018-06-14T01:15:11.588Z,16.50
2018-06-14T01:17:40.576Z,16.40
2018-06-14T01:20:09.532Z,16.40
2018-06-14T01:22:38.399Z,16.50
2018-06-14T01:25:07.316Z,16.40
2018-06-14T01:27:36.244Z,16.30
2018-06-14T01:30:05.760Z,16.40
2018-06-14T01:37:42.717Z,16.40
2018-06-14T01:40:11.722Z,16.30
2018-06-14T01:42:40.923Z,16.40
2018-06-14T01:45:09.817Z,16.50
2018-06-14T01:47:38.790Z,16.40
2018-06-14T01:50:07.733Z,16.40
2018-06-14T01:55:05.212Z,16.30
2018-06-14T02:02:31.272Z,16.30
2018-06-14T02:14:54.848Z,16.00
2018-06-14T02:17:23.786Z,16.00
2018-06-14T02:22:21.424Z,16.10
2018-06-14T02:24:50.354Z,16.10
2018-06-14T02:29:47.773Z,16.20
2018-06-14T02:32:16.781Z,16.20
2018-06-14T02:34:45.682Z,16.20
2018-06-14T02:37:14.767Z,16.30
2018-06-14T02:39:43.700Z,16.20
2018-06-14T02:42:12.614Z,16.30
2018-06-14T02:44:41.583Z,16.20
2018-06-14T02:47:10.592Z,16.10
2018-06-14T02:49:39.513Z,16.00
2018-06-14T02:52:08.448Z,16.00
2018-06-14T02:57:05.909Z,16.10
2018-06-14T02:59:34.852Z,16.10
2018-06-14T03:02:03.736Z,16.00
2018-06-14T03:04:32.619Z,16.00
2018-06-14T03:07:01.519Z,16.00
2018-06-14T03:09:30.480Z,16.00
2018-06-14T03:11:59.397Z,15.90
2018-06-14T03:14:28.433Z,16.00
2018-06-14T03:16:57.366Z,16.00
2018-06-14T03:19:26.254Z,16.10
2018-06-14T03:21:55.271Z,15.90
2018-06-14T03:24:24.195Z,15.90
2018-06-14T03:26:54.096Z,15.90
2018-06-14T03:29:23.029Z,15.90
2018-06-14T03:39:17.479Z,15.90
2018-06-14T03:41:46.400Z,15.90
2018-06-14T03:44:15.334Z,15.80
2018-06-14T03:49:12.737Z,15.70
2018-06-14T03:51:41.696Z,15.80
2018-06-14T03:56:39.092Z,15.80
2018-06-14T03:59:08.029Z,15.70
2018-06-14T04:01:37.012Z,15.80
2018-06-14T04:04:05.975Z,15.80
2018-06-14T04:06:34.871Z,15.70
2018-06-14T04:09:03.881Z,15.80
2018-06-14T04:11:32.771Z,15.70
2018-06-14T04:14:01.797Z,15.60
2018-06-14T04:16:30.932Z,15.60
2018-06-14T04:18:59.901Z,15.60
2018-06-14T04:23:57.277Z,15.40
2018-06-14T04:28:54.733Z,15.40
2018-06-14T04:31:23.833Z,15.40
2018-06-14T04:36:21.430Z,15.40
2018-06-14T04:38:50.846Z,15.50
2018-06-14T04:41:19.756Z,15.40
2018-06-14T04:43:48.692Z,15.50
2018-06-14T04:48:46.124Z,15.50
2018-06-14T04:51:15.044Z,15.50
2018-06-14T04:53:43.997Z,15.50
2018-06-14T04:56:13.716Z,15.50
2018-06-14T04:58:42.723Z,15.40
2018-06-14T05:01:11.803Z,15.50
2018-06-14T05:03:40.730Z,15.30
2018-06-14T05:11:06.717Z,15.30
2018-06-14T05:13:35.594Z,15.30
2018-06-14T05:16:04.518Z,15.40
2018-06-14T05:18:33.447Z,15.40
2018-06-14T05:21:02.355Z,15.40
2018-06-14T05:25:59.728Z,15.30
2018-06-14T05:30:57.087Z,15.20
2018-06-14T05:33:29.064Z,15.30
2018-06-14T05:35:58.157Z,15.30
2018-06-14T05:38:27.037Z,15.40
2018-06-14T05:43:24.372Z,15.40
2018-06-14T05:45:53.269Z,15.40
2018-06-14T05:48:22.249Z,15.40
2018-06-14T05:50:51.143Z,15.50
2018-06-14T05:53:20.001Z,15.40
2018-06-14T05:55:49.518Z,15.50
2018-06-14T05:58:18.436Z,15.60
2018-06-14T06:00:47.405Z,15.70
2018-06-14T06:03:16.275Z,15.70
2018-06-14T06:05:45.240Z,15.70
2018-06-14T06:10:42.674Z,15.80
2018-06-14T06:13:11.550Z,15.80
2018-06-14T06:15:40.536Z,15.80
2018-06-14T06:18:09.475Z,15.90
2018-06-14T06:20:38.375Z,15.90
2018-06-14T06:25:35.685Z,15.90
2018-06-14T06:28:04.619Z,16.00
2018-06-14T06:30:33.915Z,16.00
2018-06-14T06:33:02.836Z,16.10
2018-06-14T06:35:31.796Z,16.10
2018-06-14T06:38:00.696Z,16.10
2018-06-14T06:42:58.034Z,16.20
2018-06-14T06:45:26.916Z,16.20
2018-06-14T06:47:55.864Z,16.30
2018-06-14T06:50:24.761Z,16.30
2018-06-14T06:52:53.735Z,16.30
2018-06-14T06:57:51.096Z,16.40
2018-06-14T07:00:20.060Z,16.50
2018-06-14T07:02:49.065Z,16.50
2018-06-14T07:05:18.182Z,16.60
2018-06-14T07:07:47.027Z,16.60
2018-06-14T07:10:15.934Z,16.70
2018-06-14T07:12:44.940Z,16.70
2018-06-14T07:15:13.843Z,16.70
2018-06-14T07:20:11.220Z,16.80
2018-06-14T07:25:09.680Z,16.70
2018-06-14T07:27:38.634Z,16.70
2018-06-14T07:32:36.083Z,16.70
2018-06-14T07:35:05.181Z,16.70
2018-06-14T07:37:34.144Z,16.70
2018-06-14T07:40:03.060Z,16.80
2018-06-14T07:42:32.002Z,16.80
2018-06-14T07:45:00.899Z,16.80
2018-06-14T07:47:29.787Z,16.90
2018-06-14T07:49:58.682Z,17.00
2018-06-14T07:52:27.619Z,17.00
2018-06-14T07:54:56.560Z,17.10
2018-06-14T07:57:25.457Z,17.10
2018-06-14T07:59:55.655Z,17.20
2018-06-14T08:02:24.568Z,17.20
2018-06-14T08:04:53.477Z,17.20
2018-06-14T08:07:22.400Z,17.30
2018-06-14T08:09:51.263Z,17.30
2018-06-14T08:14:48.879Z,17.30
2018-06-14T08:17:17.799Z,17.30
2018-06-14T08:19:46.716Z,17.30
2018-06-14T08:24:44.279Z,17.40
2018-06-14T08:27:13.173Z,17.40
2018-06-14T08:29:42.072Z,17.50
2018-06-14T08:32:10.959Z,17.50
2018-06-14T08:34:39.821Z,17.50
2018-06-14T08:37:08.752Z,17.60
2018-06-14T08:42:06.236Z,17.70
2018-06-14T08:44:35.112Z,17.70
2018-06-14T08:49:32.489Z,17.70
2018-06-14T08:54:29.908Z,17.90
2018-06-14T08:56:58.833Z,17.90
2018-06-14T08:59:27.772Z,18.00
2018-06-14T09:01:56.707Z,18.00
2018-06-14T09:04:25.621Z,18.20
2018-06-14T09:09:22.959Z,18.50
2018-06-14T09:11:51.832Z,18.50
2018-06-14T09:14:20.750Z,18.60
2018-06-14T09:16:49.637Z,18.60
2018-06-14T09:19:18.499Z,18.70
2018-06-14T09:21:47.639Z,18.70
2018-06-14T09:26:45.053Z,18.80
2018-06-14T09:29:13.935Z,18.80
2018-06-14T09:31:44.164Z,18.90
2018-06-14T09:34:13.102Z,19.00
2018-06-14T09:36:41.988Z,19.00
2018-06-14T09:39:11.309Z,19.00
2018-06-14T09:41:40.869Z,19.20
2018-06-14T09:44:09.786Z,19.20
2018-06-14T09:46:38.725Z,19.20
2018-06-14T09:49:09.916Z,19.20
2018-06-14T09:51:39.339Z,19.20
2018-06-14T09:59:05.316Z,19.10
2018-06-14T10:01:34.264Z,19.20
2018-06-14T10:04:03.257Z,19.20
2018-06-14T10:06:32.221Z,19.10
2018-06-14T12:19:40.825Z,20.40
2018-06-14T12:22:09.699Z,20.50
2018-06-14T12:27:07.075Z,20.50
2018-06-14T12:32:04.479Z,20.50
2018-06-14T12:34:33.403Z,20.60
2018-06-14T12:37:02.285Z,20.60
2018-06-14T12:39:31.174Z,20.60
2018-06-14T12:42:00.090Z,20.70
2018-06-14T12:44:28.967Z,20.80
2018-06-14T12:46:57.848Z,20.80
2018-06-14T12:49:26.726Z,20.90
2018-06-14T12:51:55.620Z,20.90
2018-06-14T12:54:24.584Z,20.90
2018-06-14T12:56:53.459Z,20.90
2018-06-14T12:59:22.302Z,20.90
2018-06-14T13:01:51.166Z,20.90
2018-06-14T13:04:20.145Z,20.90
2018-06-14T13:06:49.124Z,21.00
2018-06-14T13:09:18.081Z,21.10
2018-06-14T13:11:47.008Z,21.20
2018-06-14T13:14:15.981Z,21.20
2018-06-14T13:19:13.355Z,21.30
2018-06-14T13:21:42.223Z,21.30
2018-06-14T13:24:11.097Z,21.30
2018-06-14T13:26:39.988Z,21.40
2018-06-14T13:29:08.916Z,21.40
2018-06-14T13:31:37.820Z,21.40
2018-06-14T13:34:06.968Z,21.50
2018-06-14T13:36:35.914Z,21.50
2018-06-14T13:39:06.172Z,21.60
2018-06-14T13:41:35.037Z,21.60
2018-06-14T13:44:03.908Z,21.70
2018-06-14T13:46:32.941Z,21.70
2018-06-14T13:49:01.985Z,21.70
2018-06-14T13:51:30.803Z,21.70
2018-06-14T13:53:59.699Z,21.70
2018-06-14T13:56:28.739Z,21.80
2018-06-14T13:58:57.682Z,21.80
2018-06-14T14:01:26.684Z,21.80
2018-06-14T14:03:55.980Z,21.80
2018-06-14T14:06:24.951Z,21.90
2018-06-14T14:08:53.801Z,21.90
2018-06-14T14:11:22.852Z,21.90
2018-06-14T14:13:51.710Z,22.00
2018-06-14T14:16:20.637Z,22.00
2018-06-14T14:18:49.627Z,22.00
2018-06-14T14:21:18.574Z,22.00
2018-06-14T14:26:15.930Z,22.10
2018-06-14T14:28:44.836Z,22.10
2018-06-14T14:31:13.801Z,22.10
2018-06-14T14:33:42.680Z,22.10
2018-06-14T14:36:11.584Z,22.10
2018-06-14T14:38:40.539Z,22.10
2018-06-14T14:41:09.434Z,22.10
2018-06-14T14:43:38.320Z,22.10
2018-06-14T14:46:07.215Z,22.10
2018-06-14T14:48:36.140Z,22.10
2018-06-14T14:51:05.030Z,22.10
2018-06-14T14:53:33.930Z,22.10
2018-06-14T14:56:02.868Z,22.10
2018-06-14T14:58:31.757Z,22.10
2018-06-14T15:01:00.706Z,22.10
2018-06-14T15:05:58.312Z,22.10
2018-06-14T15:08:27.219Z,22.00
2018-06-14T15:10:56.136Z,22.00
2018-06-14T15:13:25.107Z,22.00
2018-06-14T15:15:54.006Z,22.10
2018-06-14T15:18:22.915Z,22.20
2018-06-14T15:20:51.812Z,22.10
2018-06-14T15:23:20.761Z,22.10
2018-06-14T15:25:49.692Z,22.10
2018-06-14T15:28:18.610Z,22.10
2018-06-14T15:30:47.529Z,22.10
2018-06-14T15:33:16.438Z,22.20
2018-06-14T15:35:45.351Z,22.10
2018-06-14T15:38:14.267Z,22.10
2018-06-14T15:40:43.179Z,22.10
2018-06-14T15:43:12.064Z,22.10
2018-06-14T15:45:40.959Z,22.10
2018-06-14T15:48:09.879Z,22.00
2018-06-14T15:50:38.856Z,22.00
2018-06-14T15:53:07.859Z,22.00
2018-06-14T15:55:56.119Z,22.00
2018-06-14T15:58:25.001Z,22.00
2018-06-14T16:00:53.880Z,21.90
2018-06-14T16:03:22.784Z,21.90
2018-06-14T16:05:51.700Z,21.90
2018-06-14T16:08:20.598Z,21.80
2018-06-14T16:13:18.054Z,21.80
2018-06-14T16:15:46.981Z,21.80
2018-06-14T16:18:16.146Z,21.80
2018-06-14T16:20:45.576Z,21.80
2018-06-14T16:23:14.552Z,21.80
2018-06-14T16:28:11.998Z,21.90
2018-06-14T16:30:40.960Z,22.00
2018-06-14T16:33:10.005Z,22.00
2018-06-14T16:38:07.389Z,22.00
2018-06-14T16:40:36.336Z,22.00
2018-06-14T16:43:05.499Z,21.90
2018-06-14T16:45:34.439Z,21.80
2018-06-14T16:48:03.316Z,21.80
2018-06-14T16:50:32.234Z,21.80
2018-06-14T17:02:55.254Z,21.90
2018-06-14T17:07:52.678Z,21.90
2018-06-14T17:10:21.634Z,21.90
2018-06-14T17:12:50.557Z,21.90
2018-06-14T17:15:19.487Z,21.90
2018-06-14T17:17:48.428Z,21.80
2018-06-14T17:20:17.435Z,21.70
2018-06-14T17:22:46.394Z,21.70
2018-06-14T17:25:15.341Z,21.60
2018-06-14T17:27:44.289Z,21.50
2018-06-14T17:30:13.312Z,21.50
2018-06-14T17:32:42.193Z,21.50
2018-06-14T17:35:11.119Z,21.40
2018-06-14T17:37:40.067Z,21.30
2018-06-14T17:40:08.937Z,21.30
2018-06-14T17:42:37.889Z,21.30
2018-06-14T17:45:06.820Z,21.30
2018-06-14T17:47:40.656Z,21.20
2018-06-14T17:50:09.659Z,21.20
2018-06-14T17:52:38.537Z,21.20
2018-06-14T17:55:07.490Z,21.10
2018-06-14T17:57:36.358Z,21.10
2018-06-14T18:05:03.190Z,21.00
2018-06-14T18:07:31.704Z,21.00
2018-06-14T18:10:00.658Z,21.00
2018-06-14T18:12:29.618Z,20.90
2018-06-14T18:14:58.582Z,20.90
2018-06-14T18:17:27.526Z,20.90
2018-06-14T18:19:56.473Z,20.80
2018-06-14T18:24:53.878Z,20.70
2018-06-14T18:27:22.842Z,20.70
2018-06-14T18:29:51.882Z,20.60
2018-06-14T18:32:20.754Z,20.60
2018-06-14T18:34:49.657Z,20.50
2018-06-14T18:37:18.593Z,20.50
2018-06-14T18:42:15.981Z,20.40
2018-06-14T18:44:45.486Z,20.30
2018-06-14T18:47:14.412Z,20.30
2018-06-14T18:49:43.373Z,20.30
2018-06-14T18:52:12.319Z,20.20
2018-06-14T18:54:41.263Z,20.10
2018-06-14T18:57:10.536Z,20.00
2018-06-14T19:02:08.034Z,19.90
2018-06-14T19:04:36.985Z,19.90
2018-06-14T19:07:05.952Z,19.90
2018-06-14T19:09:34.849Z,19.90
2018-06-14T19:12:03.753Z,19.90
2018-06-14T19:14:32.749Z,20.00
2018-06-14T19:17:01.748Z,19.90
2018-06-14T19:21:59.116Z,19.80
2018-06-14T19:24:28.034Z,19.70
2018-06-14T19:26:57.045Z,19.70
2018-06-14T19:29:25.924Z,19.60
2018-06-14T19:31:54.893Z,19.60
2018-06-14T19:34:23.806Z,19.50
2018-06-14T19:36:52.729Z,19.50
2018-06-14T19:39:21.697Z,19.40
2018-06-14T19:41:50.620Z,19.40
2018-06-14T19:44:19.503Z,19.40
2018-06-14T19:46:48.371Z,19.30
2018-06-14T19:49:20.665Z,19.20
2018-06-14T19:51:49.625Z,19.00
2018-06-14T19:54:18.530Z,18.90
2018-06-14T19:56:47.534Z,18.70
2018-06-14T19:59:16.461Z,18.80
2018-06-14T20:01:45.404Z,18.80
2018-06-14T20:04:14.329Z,18.80
2018-06-14T20:06:43.233Z,18.80
2018-06-14T20:09:12.226Z,18.80
2018-06-14T20:11:41.313Z,18.90
2018-06-14T20:14:10.244Z,18.80
2018-06-14T20:16:39.210Z,18.80
2018-06-14T20:21:36.654Z,18.60
2018-06-14T20:24:05.979Z,18.50
2018-06-14T20:29:03.479Z,18.40
2018-06-14T20:31:32.549Z,18.30
2018-06-14T20:34:01.621Z,18.30
2018-06-14T20:36:30.583Z,18.20
2018-06-14T20:38:59.673Z,18.20
2018-06-14T20:41:28.567Z,18.20
2018-06-14T20:43:57.541Z,18.20
2018-06-14T20:46:26.481Z,18.00
2018-06-14T20:48:55.441Z,18.10
2018-06-14T20:51:24.333Z,18.10
2018-06-14T20:53:53.281Z,18.10
2018-06-14T20:58:50.715Z,17.90
2018-06-14T21:01:19.688Z,17.80
2018-06-14T21:03:48.736Z,17.80
2018-06-14T21:08:46.318Z,17.70
2018-06-14T21:11:15.309Z,17.50
2018-06-14T21:16:13.892Z,17.50
2018-06-14T21:18:42.821Z,17.50
2018-06-14T21:21:11.739Z,17.50
2018-06-14T21:23:40.761Z,17.60
2018-06-14T21:26:09.772Z,17.50
2018-06-14T21:28:38.693Z,17.50
2018-06-14T21:31:07.629Z,17.60
2018-06-14T21:33:36.638Z,17.50
2018-06-14T21:38:34.265Z,17.60
2018-06-14T21:41:03.289Z,17.40
2018-06-14T21:43:32.245Z,17.50
2018-06-14T21:46:01.119Z,17.50
2018-06-14T21:48:30.224Z,17.50
2018-06-14T21:50:59.173Z,17.60
2018-06-14T21:53:28.180Z,17.70
2018-06-14T21:55:57.169Z,17.60
2018-06-14T22:00:55.856Z,17.40
2018-06-14T22:03:29.990Z,17.40
2018-06-14T22:05:58.937Z,17.30
2018-06-14T22:08:27.842Z,17.30
2018-06-14T22:10:56.749Z,17.30
2018-06-14T22:13:25.661Z,17.30
2018-06-14T22:15:54.532Z,17.30
2018-06-14T22:18:23.484Z,17.20
2018-06-14T22:20:52.364Z,17.20
2018-06-14T22:23:21.339Z,17.20
2018-06-14T22:25:50.389Z,17.00
2018-06-14T22:30:47.742Z,17.00
2018-06-14T22:33:27.781Z,17.10
2018-06-14T22:35:56.688Z,17.10
2018-06-14T22:38:25.596Z,17.10
2018-06-14T22:40:54.686Z,16.90
2018-06-14T22:43:23.640Z,16.80
2018-06-14T22:45:52.557Z,16.70
2018-06-14T22:48:21.476Z,16.60
2018-06-14T22:51:01.343Z,16.60
2018-06-14T22:53:30.388Z,16.70
2018-06-14T22:55:59.316Z,16.70
2018-06-14T22:58:28.364Z,16.70
2018-06-14T23:01:37.060Z,16.70
2018-06-14T23:04:06.808Z,16.70
2018-06-14T23:06:35.695Z,16.50
2018-06-14T23:10:12.821Z,16.30
2018-06-14T23:12:41.742Z,16.30
2018-06-14T23:15:10.644Z,16.10
2018-06-14T23:17:39.579Z,16.00
2018-06-14T23:20:09.727Z,16.00
2018-06-14T23:22:38.664Z,16.20
2018-06-14T23:25:07.663Z,16.20
2018-06-14T23:27:36.600Z,16.30
2018-06-14T23:30:05.725Z,16.20
2018-06-14T23:32:34.600Z,16.20
2018-06-14T23:35:03.511Z,16.10
2018-06-14T23:37:32.481Z,15.90
2018-06-14T23:40:01.506Z,15.90
2018-06-14T23:42:30.566Z,15.60
2018-06-14T23:44:59.495Z,15.60
2018-06-14T23:47:28.681Z,15.70
2018-06-14T23:49:57.832Z,15.70
2018-06-14T23:52:26.783Z,15.80
2018-06-14T23:54:55.660Z,15.50
2018-06-14T23:57:24.751Z,15.40
2018-06-14T23:59:53.677Z,15.30
